Date,TemperatureHighF,TemperatureAvgF,TemperatureLowF,DewpointHighF,DewpointAvgF,DewpointLowF,HumidityHigh,HumidityAvg,HumidityLow,PressureMaxIn,PressureMinIn,WindSpeedMaxMPH,WindSpeedAvgMPH,GustSpeedMaxMPH,PrecipitationSumIn
2013-1-1,51,47,43,34,23,11,67,42,21,30.30,30.18,42,13,54,0.00
2013-1-2,58,53,48,16,13,11,23,20,16,30.20,30.07,48,30,64,0.01
2013-1-3,58,55,52,15,10,2,21,17,11,30.21,30.08,52,31,67,0.00
2013-1-4,61,54,51,27,11,2,32,18,12,30.32,30.21,28,10,39,0.00
2013-1-5,57,51,44,40,24,7,85,38,15,30.35,30.23,14,4,19,0.00
2013-1-6,45,43,41,42,41,35,98,92,73,30.24,30.10,19,9,29,0.04
2013-1-7,62,51,43,39,29,15,74,46,16,30.21,30.09,25,10,34,0.01
2013-1-8,71,64,61,40,31,14,39,29,16,30.15,30.08,27,11,37,0.00
2013-1-9,64,56,44,44,36,30,96,52,29,30.14,30.02,11,5,14,0.00
2013-1-10,46,43,39,44,34,23,97,73,47,30.18,29.98,24,12,34,0.00
2013-1-11,44,40,37,30,21,16,57,46,34,30.27,30.14,20,9,35,0.00
2013-1-12,47,42,39,27,20,15,58,43,31,30.23,30.15,38,11,47,0.00
2013-1-13,46,41,38,31,20,8,70,44,28,30.24,30.13,43,12,52,0.00
2013-1-14,44,39,33,8,0,-6,28,19,14,30.42,30.18,48,26,58,0.00
2013-1-15,54,46,40,34,16,0,64,30,18,30.53,30.40,34,12,47,0.00
2013-1-16,63,56,49,24,20,14,33,24,15,30.43,30.15,48,24,63,0.00
2013-1-17,66,62,58,16,12,7,18,14,10,30.21,30.09,51,34,70,0.00
2013-1-18,66,62,59,16,12,8,15,14,12,30.19,30.11,30,21,39,0.00
2013-1-19,71,63,60,20,10,6,15,12,10,30.22,30.12,32,19,41,0.00
2013-1-20,69,64,60,14,7,-4,13,10,7,30.17,30.06,34,20,45,0.00
2013-1-21,71,66,63,8,2,-6,10,8,5,30.14,30.03,35,21,44,0.00
2013-1-22,71,65,62,18,6,-4,15,10,6,30.12,30.04,19,10,23,0.00
2013-1-23,70,62,49,46,24,2,88,27,8,30.11,30.05,35,13,44,0.04
2013-1-24,57,52,50,53,51,47,99,94,85,30.20,30.09,29,18,42,0.56
2013-1-25,58,55,52,53,51,47,96,86,72,30.19,30.01,27,17,35,0.10
2013-1-26,60,54,45,54,50,44,98,87,74,30.03,29.94,22,8,31,0.04
2013-1-27,52,47,44,50,41,22,100,82,41,30.09,30.00,19,9,27,0.00
2013-1-28,49,45,40,37,28,20,70,52,37,30.25,30.09,15,6,21,0.00
2013-1-29,51,47,44,36,30,25,67,52,43,30.29,30.21,0,0,0,0.00
2013-1-30,62,54,46,44,35,29,67,50,35,30.41,30.27,9,2,11,0.00
2013-1-31,69,64,59,43,35,30,45,33,27,30.27,30.15,18,8,27,0.00
2013-2-1,69,64,60,46,35,29,57,35,26,30.19,30.14,9,3,12,0.00
2013-2-2,68,64,61,45,37,32,48,37,29,30.23,30.15,27,9,39,0.00
2013-2-3,66,62,59,47,40,34,55,45,31,30.17,30.03,21,10,27,0.00
2013-2-4,67,58,52,53,42,30,87,58,33,30.12,30.00,14,4,17,0.00
2013-2-5,54,46,44,50,45,42,99,95,65,30.13,30.03,14,5,21,0.00
2013-2-6,57,48,44,49,45,36,99,88,60,30.16,30.06,13,3,21,0.00
2013-2-7,51,46,41,46,42,34,97,85,54,30.19,30.04,18,6,26,0.00
2013-2-8,43,41,39,42,37,29,95,85,63,30.04,29.93,19,13,32,0.00
2013-2-9,48,43,39,41,33,27,92,69,55,30.16,30.00,20,8,29,0.00
2013-2-10,46,43,41,41,38,29,93,83,59,30.16,30.08,9,5,15,0.00
2013-2-11,54,47,42,38,27,16,85,48,24,30.29,30.13,30,10,39,0.00
2013-2-12,54,50,47,34,21,5,55,33,16,30.40,30.29,21,8,30,0.00
2013-2-13,60,55,53,41,28,19,58,36,22,30.32,30.19,15,5,24,0.00
2013-2-14,69,60,52,42,30,22,48,33,21,30.25,30.12,25,6,31,0.00
2013-2-15,70,65,61,26,21,15,24,19,15,30.24,30.15,35,21,50,0.00
2013-2-16,73,65,57,18,14,6,21,14,10,30.19,29.99,17,9,21,0.00
2013-2-17,62,55,46,47,33,15,92,52,18,30.04,29.94,15,6,18,0.00
2013-2-18,52,46,43,46,43,40,95,89,75,30.11,30.00,14,5,18,0.00
2013-2-19,47,43,37,42,39,34,98,87,74,30.04,29.78,21,9,31,0.09
2013-2-20,49,42,35,39,31,24,86,65,43,30.07,29.78,23,12,32,0.09
2013-2-21,51,46,41,41,34,25,77,63,41,30.16,30.05,16,8,23,0.00
2013-2-22,59,52,47,39,29,19,58,42,28,30.25,30.16,14,4,17,0.00
2013-2-23,53,50,46,46,35,18,90,59,26,30.21,29.96,43,9,60,0.01
2013-2-24,56,50,45,28,13,1,46,24,11,30.24,30.01,54,29,65,0.01
2013-2-25,60,54,49,31,18,-1,47,25,10,30.27,30.10,25,5,36,0.00
2013-2-26,65,58,50,34,20,10,39,24,14,30.16,30.05,27,12,45,0.00
2013-2-27,65,59,54,20,11,4,23,15,11,30.32,30.15,32,20,45,0.00
2013-2-28,70,64,59,31,13,3,26,14,10,30.36,30.28,32,17,42,0.00
2013-3-1,76,69,63,31,17,10,19,14,11,30.33,30.20,38,14,50,0.00
2013-3-2,78,69,60,31,24,19,26,18,13,30.23,30.09,13,6,18,0.00
2013-3-3,66,56,46,46,38,18,92,55,16,30.11,30.00,15,7,25,0.00
2013-3-4,59,51,44,50,46,42,98,84,64,30.14,30.02,12,4,15,0.00
2013-3-5,56,46,43,49,44,42,98,94,73,30.17,30.08,10,4,15,0.01
2013-3-6,49,44,41,47,43,39,99,95,78,30.21,30.07,12,3,16,0.10
2013-3-7,51,46,43,48,43,36,99,91,62,30.07,29.85,20,4,34,0.23
2013-3-8,48,43,39,44,40,37,98,91,75,30.09,29.83,22,10,34,0.44
2013-3-11,67,62,57,39,28,15,39,28,16,30.22,30.07,11,4,16,0.00
2013-3-12,72,66,60,45,34,20,47,32,14,30.11,30.04,8,2,9,0.00
2013-3-13,80,73,68,44,31,17,29,21,12,30.14,30.04,15,5,19,0.00
2013-3-14,78,71,66,46,33,-100,37,26,16,30.09,30.01,18,7,24,0.00
2013-3-15,76,68,60,53,42,27,71,39,19,30.03,29.93,11,3,15,0.00
2013-3-16,66,57,49,52,46,38,92,70,39,29.97,29.90,13,5,19,0.00
2013-3-17,63,57,49,51,46,37,85,68,41,30.03,29.95,14,5,18,0.00
2013-3-18,56,50,45,49,46,43,96,87,73,30.12,29.99,15,4,19,0.00
2013-3-19,61,53,46,52,48,44,97,85,53,30.16,30.08,19,6,26,0.00
2013-3-20,64,57,50,50,47,44,87,68,49,30.14,29.99,23,8,33,0.00
2013-3-21,65,58,51,50,46,32,86,64,35,30.00,29.82,11,5,18,0.00
2013-3-22,65,60,53,50,34,14,74,40,17,29.93,29.81,17,8,24,0.00
2013-3-23,65,58,51,52,36,14,72,46,18,30.04,29.92,17,4,23,0.00
2013-3-24,65,60,51,50,38,23,63,47,22,30.05,29.93,12,5,17,0.00
2013-3-25,71,62,56,52,40,25,73,45,23,30.00,29.91,8,3,11,0.00
2013-3-26,63,55,50,52,43,29,85,65,30,29.99,29.93,11,4,14,0.00
2013-3-27,61,52,45,51,47,43,98,83,68,30.08,29.95,13,6,17,0.00
2013-3-28,64,54,45,54,48,44,98,84,56,30.12,30.05,13,4,23,0.00
2013-3-29,67,59,47,55,48,38,94,70,47,30.14,30.07,12,4,16,0.00
2013-3-30,65,54,47,52,46,-100,98,77,40,30.16,30.09,13,5,16,0.00
2013-3-31,54,51,47,52,50,47,99,97,91,30.16,30.11,13,7,19,0.12
2013-4-1,55,49,46,52,48,46,100,97,88,30.23,30.13,20,10,29,0.01
2013-4-2,62,55,47,54,48,44,99,80,54,30.15,30.05,19,7,26,0.01
2013-4-3,68,60,52,55,49,40,87,69,42,30.11,30.03,16,6,20,0.00
2013-4-4,63,53,47,52,49,41,99,88,44,30.15,30.06,24,10,32,0.00
2013-4-5,60,53,48,57,51,48,100,92,70,30.14,30.03,14,6,21,0.01
2013-4-6,63,56,47,54,50,45,98,82,53,30.14,29.99,17,6,30,0.01
2013-4-7,67,60,51,54,48,41,91,66,46,30.00,29.81,26,8,37,0.00
2013-4-8,54,49,44,49,42,34,95,79,53,29.89,29.72,27,14,41,0.00
2013-4-9,65,57,50,37,29,15,55,35,14,30.04,29.88,22,13,31,0.00
2013-4-10,73,66,60,35,23,13,34,20,11,30.15,30.00,35,15,48,0.00
2013-4-11,67,60,53,48,40,30,75,48,27,30.00,29.78,11,4,16,0.00
2013-4-12,65,54,47,52,48,44,97,82,51,29.90,29.80,13,5,20,0.00
2013-4-13,53,49,46,51,48,45,100,98,82,29.95,29.88,17,6,18,0.01
2013-4-14,52,49,47,51,48,47,100,98,92,29.94,29.88,11,3,14,0.01
2013-4-15,55,49,42,50,46,39,97,91,77,29.96,29.88,15,5,20,0.01
2013-4-16,54,48,40,43,38,24,96,70,33,30.08,29.91,18,8,28,0.00
2013-4-17,60,54,48,33,25,17,54,33,20,30.18,30.08,23,11,30,0.00
2013-4-18,69,60,55,29,17,11,30,19,12,30.25,30.16,45,23,56,0.00
2013-4-19,73,68,62,35,22,11,31,18,11,30.20,30.00,25,10,32,0.00
2013-4-20,79,72,65,49,34,23,45,26,16,30.01,29.91,17,8,30,0.00
2013-4-21,76,69,61,49,39,29,51,33,21,30.01,29.92,10,4,14,0.00
2013-4-22,67,55,47,53,48,33,98,78,32,30.01,29.91,14,3,17,0.00
2013-4-23,64,52,47,53,49,46,99,87,67,30.01,29.92,11,6,18,0.00
2013-4-24,51,49,48,51,49,45,100,98,90,30.04,29.93,14,5,17,0.02
2013-4-25,60,54,48,49,45,42,88,74,57,30.16,30.01,15,5,21,0.01
2013-4-26,67,58,50,50,46,43,82,66,50,30.20,30.14,14,4,18,0.00
2013-4-27,72,66,59,54,49,45,69,56,42,30.17,30.00,17,8,22,0.00
2013-4-28,67,63,54,56,51,46,86,67,50,30.01,29.86,12,4,15,0.00
2013-4-29,68,56,47,57,52,46,98,85,66,29.93,29.82,9,3,14,0.00
2013-4-30,57,51,48,52,50,48,99,95,81,29.93,29.85,14,7,21,0.00
2013-5-1,70,57,50,55,51,43,97,81,46,30.11,29.93,13,7,24,0.00
2013-5-2,82,71,53,51,12,-16,86,26,2,30.15,30.02,53,20,68,0.00
2013-5-3,86,77,72,32,7,-12,19,8,3,30.02,29.77,33,14,41,0.00
2013-5-4,76,61,48,54,44,21,98,63,15,29.83,29.72,18,10,24,0.00
2013-5-5,53,50,48,50,48,47,98,94,85,29.98,29.82,21,11,30,0.00
2013-5-6,58,52,49,53,50,46,100,91,65,30.05,29.92,15,5,22,0.20
2013-5-7,60,54,51,52,48,43,96,80,60,30.10,30.02,15,5,22,0.02
2013-5-8,59,54,49,50,48,43,98,81,58,30.15,30.10,15,7,23,0.00
2013-5-9,64,57,50,54,50,45,97,77,65,30.13,30.05,12,4,18,0.00
2013-5-10,72,63,52,56,51,-100,92,68,51,30.13,30.03,18,8,25,0.00
2013-5-11,81,71,61,59,53,-100,76,54,30,30.08,30.00,18,6,24,0.00
2013-5-12,87,82,73,56,49,42,43,33,24,30.05,29.91,18,8,30,0.00
2013-5-13,88,82,71,50,42,27,30,24,17,29.97,29.89,19,9,32,0.00
2013-5-14,77,64,49,52,44,23,94,53,14,29.98,29.87,26,9,34,0.00
2013-5-15,66,58,51,56,50,44,87,74,63,30.07,29.97,13,4,16,0.00
2013-5-16,64,52,50,54,34,-100,98,87,70,30.01,29.94,11,4,17,0.00
2013-5-17,65,56,51,55,46,-100,96,82,64,30.02,29.93,15,6,20,0.00
2013-5-18,68,60,51,55,49,46,91,70,55,30.07,29.99,13,6,17,0.00
2013-5-19,74,64,55,55,50,40,77,61,35,30.01,29.88,12,5,19,0.00
2013-5-20,77,66,56,57,49,33,83,59,22,29.98,29.91,17,7,25,0.00
2013-5-21,71,62,54,59,53,39,97,74,31,29.94,29.83,14,6,19,0.00
2013-5-22,66,56,49,55,50,44,98,80,55,29.87,29.80,11,5,19,0.00
2013-5-23,65,55,49,52,48,41,91,76,59,29.96,29.85,14,6,18,0.00
2013-5-24,63,56,51,54,48,42,86,75,63,30.02,29.93,17,9,25,0.00
2013-5-25,64,56,51,54,49,43,89,78,64,30.07,29.98,13,8,21,0.00
2013-5-26,65,56,49,55,50,44,93,78,66,30.09,30.01,13,6,17,0.00
2013-5-27,67,59,51,55,50,46,92,73,58,30.03,29.89,12,7,21,0.00
2013-5-28,70,64,54,55,52,46,92,66,44,29.91,29.76,19,8,29,0.00
2013-5-29,76,67,59,57,51,46,81,57,38,29.83,29.70,23,8,30,0.00
2013-5-30,75,66,58,60,55,45,82,68,44,29.88,29.76,10,3,14,0.00
2013-5-31,70,62,54,61,56,52,98,81,64,29.93,29.84,12,6,17,0.00
2013-6-1,83,65,54,61,55,45,98,72,26,29.88,29.76,20,7,24,0.00
2013-6-2,62,56,54,62,56,53,100,98,84,29.85,29.78,15,6,20,0.01
2013-6-3,61,56,53,57,54,52,100,94,84,29.93,29.83,15,7,21,0.01
2013-6-4,63,56,50,56,53,49,100,92,76,30.00,29.91,13,8,19,0.01
2013-6-5,62,55,50,59,53,49,99,92,76,30.05,29.96,18,7,25,0.01
2013-6-6,66,57,50,58,54,49,99,88,72,29.98,29.92,14,5,19,0.01
2013-6-7,65,55,51,59,54,50,100,94,75,29.94,29.83,9,3,14,0.01
2013-6-8,62,54,52,61,54,52,100,99,90,29.94,29.82,14,6,19,0.01
2013-6-9,57,54,52,57,54,52,100,100,98,29.97,29.92,12,6,18,0.01
2013-6-10,65,57,52,55,53,50,100,86,68,30.01,29.93,14,5,20,0.01
2013-6-11,74,65,54,60,54,47,99,70,45,29.98,29.91,12,6,15,0.00
2013-6-12,61,55,52,58,54,51,100,96,69,30.05,29.93,13,5,16,0.00
2013-6-13,66,63,57,60,56,50,100,79,60,30.07,29.93,12,6,17,0.01
2013-6-14,67,60,53,58,54,48,99,84,51,29.94,29.87,13,5,18,0.01
2013-6-15,65,56,52,61,54,51,100,91,74,30.00,29.90,14,6,20,0.01
2013-6-16,68,59,50,57,54,49,100,83,60,30.07,29.98,11,5,17,0.01
2013-6-17,73,66,58,58,55,51,87,67,56,30.00,29.89,11,4,16,0.00
2013-6-18,69,62,53,57,53,49,89,73,58,29.93,29.85,13,6,20,0.00
2013-6-19,75,63,53,54,50,40,90,63,28,29.91,29.80,16,8,27,0.00
2013-6-20,72,66,61,55,47,40,60,52,36,29.88,29.82,10,4,16,0.00
2013-6-21,75,72,69,56,54,50,63,52,43,29.90,29.85,8,5,13,0.00
2013-6-22,71,65,59,58,55,45,81,71,57,29.92,29.84,13,6,18,0.00
2013-6-23,63,57,52,58,54,49,98,88,62,29.92,29.83,10,5,19,0.00
2013-6-24,63,57,52,58,54,51,98,93,81,29.99,29.85,13,6,18,0.00
2013-6-25,69,62,55,60,56,54,99,82,61,30.03,29.93,19,6,26,0.00
2013-6-26,78,71,62,61,58,54,79,65,54,30.01,29.93,14,6,17,0.00
2013-6-27,89,77,69,64,59,53,69,54,40,30.03,29.96,14,4,17,0.00
2013-6-28,84,78,73,59,57,53,56,48,42,29.98,29.86,9,4,15,0.00
2013-6-29,89,83,76,62,59,51,52,44,29,29.85,29.73,14,7,16,0.00
2013-6-30,96,82,72,65,61,50,69,51,26,29.76,29.69,12,4,18,0.00
2013-7-1,86,77,68,63,57,51,66,50,37,29.87,29.75,17,8,24,0.00
2013-7-2,82,74,66,62,57,50,78,56,43,29.98,29.86,11,3,16,0.00
2013-7-3,77,70,64,63,58,51,82,66,48,29.91,29.80,8,3,13,0.00
2013-7-4,79,69,59,62,58,48,86,68,50,29.83,29.76,8,3,11,0.00
2013-7-5,72,62,55,62,57,48,100,85,54,29.87,29.78,13,4,19,0.00
2013-7-6,71,61,55,63,58,54,99,91,74,29.86,29.78,11,4,18,0.00
2013-7-7,76,66,55,61,57,48,97,75,42,29.87,29.80,16,6,23,0.00
2013-7-8,78,70,66,59,50,-100,62,53,32,29.93,29.87,17,5,23,0.00
2013-7-9,88,80,75,59,56,47,56,44,29,29.97,29.90,13,5,19,0.00
2013-7-10,79,69,62,62,54,-100,75,62,44,29.96,29.89,16,5,20,0.00
2013-7-11,72,66,61,63,59,53,92,79,58,29.98,29.90,16,5,22,0.00
2013-7-12,78,67,60,63,59,45,95,78,39,29.95,29.88,8,3,13,0.00
2013-7-13,77,70,63,61,55,45,73,59,43,29.96,29.86,19,7,29,0.00
2013-7-14,81,72,64,60,53,46,70,52,33,29.94,29.83,17,7,27,0.00
2013-7-15,79,69,63,58,52,43,73,56,40,29.88,29.82,18,8,24,0.00
2013-7-16,76,71,64,56,50,36,63,48,28,29.98,29.86,10,5,16,0.00
2013-7-17,80,72,63,54,49,40,57,45,29,30.03,29.96,16,8,24,0.00
2013-7-18,77,70,65,58,54,44,68,56,42,29.97,29.86,15,7,20,0.00
2013-7-19,73,68,63,58,54,49,69,61,51,29.91,29.83,11,4,15,0.00
2013-7-20,76,63,54,62,56,-100,98,81,61,29.89,29.80,14,6,16,0.00
2013-7-21,73,63,59,64,59,53,96,86,60,29.94,29.83,14,6,17,0.00
2013-7-22,77,68,61,62,58,50,87,71,51,30.00,29.92,11,3,16,0.00
2013-7-23,71,66,59,60,56,52,88,72,62,30.03,29.95,13,5,19,0.00
2013-7-24,74,67,60,60,57,53,85,70,56,29.98,29.90,16,7,22,0.00
2013-7-25,70,65,59,59,56,53,86,74,65,30.02,29.93,13,5,18,0.00
2013-7-26,73,65,56,59,57,54,92,75,60,30.11,30.00,13,5,19,0.00
2013-7-27,73,67,61,59,57,51,84,70,53,30.02,29.89,9,5,13,0.00
2013-7-28,65,58,52,60,55,50,98,90,74,29.95,29.88,15,5,19,0.00
2013-7-29,69,58,53,60,54,52,99,86,66,30.05,29.94,10,4,15,0.00
2013-7-30,64,59,51,60,54,50,99,83,67,30.16,30.05,13,6,19,0.00
2013-7-31,62,56,51,57,53,49,99,89,64,30.14,30.03,14,5,18,0.00
2013-8-1,68,58,50,57,53,49,99,86,65,30.07,29.94,14,5,16,0.01
2013-8-2,69,62,54,60,55,50,96,78,62,29.99,29.92,15,6,19,0.01
2013-8-3,69,60,51,60,55,50,99,82,60,30.02,29.96,14,6,20,0.00
2013-8-4,69,62,51,59,55,48,98,77,52,30.03,29.95,12,5,17,0.00
2013-8-5,71,68,61,58,54,43,76,60,37,30.01,29.93,12,5,17,0.00
2013-8-6,70,61,50,57,51,35,95,72,29,30.05,29.96,12,5,17,0.00
2013-8-7,71,62,53,57,52,44,93,71,46,30.09,29.99,14,5,21,0.00
2013-8-8,69,63,54,58,53,48,89,71,58,30.01,29.93,18,7,25,0.00
2013-8-9,72,62,52,58,53,43,95,72,47,29.98,29.91,11,5,17,0.00
2013-8-10,68,61,51,58,53,44,97,76,55,30.05,29.97,13,5,17,0.00
2013-8-11,70,62,54,59,55,52,96,77,61,30.02,29.92,12,5,16,0.00
2013-8-12,70,62,54,59,55,51,93,78,62,30.00,29.92,13,6,19,0.00
2013-8-13,76,65,56,60,54,-100,87,72,43,29.99,29.89,12,6,17,0.00
2013-8-14,79,70,64,61,53,-100,79,58,37,29.93,29.83,13,8,19,0.00
2013-8-15,80,62,66,63,34,-100,75,55,53,29.94,29.87,8,4,10,0.00
2013-8-16,86,74,74,60,50,-100,60,49,36,29.96,29.89,10,5,13,0.00
2013-8-17,79,73,65,60,53,-100,60,52,42,29.94,29.81,12,7,17,0.00
2013-8-18,75,70,65,60,58,52,73,64,56,29.88,29.81,9,5,13,0.00
2013-8-19,72,62,55,62,46,-100,96,74,43,29.96,29.86,12,5,15,0.00
2013-8-20,76,66,55,60,52,-100,96,67,35,29.95,29.86,10,5,14,0.00
2013-8-21,77,73,68,59,53,41,67,50,32,29.93,29.85,11,6,15,0.00
2013-8-22,84,75,64,57,50,32,56,42,21,29.92,29.80,18,9,21,0.00
2013-8-23,79,75,67,57,52,41,57,46,29,29.86,29.74,9,5,15,0.00
2013-8-24,77,71,65,57,48,-100,62,48,34,29.84,29.77,12,6,16,0.00
2013-8-25,80,76,67,57,49,41,50,39,27,29.91,29.85,12,7,17,0.00
2013-8-26,87,81,74,59,48,33,50,33,21,29.92,29.82,10,4,14,0.00
2013-8-27,82,79,75,62,59,53,57,51,40,29.83,29.77,5,1,9,0.00
2013-8-28,84,81,77,55,48,37,45,33,23,29.88,29.82,11,6,17,0.00
2013-8-29,89,83,77,55,48,38,35,30,22,29.93,29.86,18,7,24,0.00
2013-8-30,87,82,76,67,60,45,73,50,26,29.95,29.88,17,9,23,0.00
2013-8-31,84,76,70,69,65,-100,83,71,55,29.96,29.88,11,6,16,0.00
2013-9-1,78,73,66,69,66,63,90,78,65,29.93,29.86,13,6,17,0.00
2013-9-2,81,73,69,66,64,62,82,73,58,29.93,29.81,15,6,22,0.00
2013-9-3,85,78,71,65,61,56,76,55,46,29.91,29.82,13,6,17,0.00
2013-9-4,86,81,75,60,55,45,51,41,30,29.91,29.83,15,6,23,0.00
2013-9-5,89,83,77,57,51,45,42,33,24,29.88,29.80,14,6,18,0.00
2013-9-6,91,84,78,56,48,39,36,29,23,29.86,29.77,14,6,19,0.00
2013-9-7,88,81,78,53,43,-100,33,28,25,29.86,29.78,17,7,26,0.00
2013-9-8,85,77,70,56,51,41,49,41,29,29.83,29.73,11,6,19,0.00
2013-9-9,73,69,63,58,54,47,69,60,43,29.81,29.74,11,5,15,0.00
2013-9-10,69,60,52,58,54,48,99,82,54,29.95,29.79,12,4,17,0.00
2013-9-11,71,63,54,60,56,53,99,80,55,30.03,29.96,12,5,18,0.00
2013-9-12,77,70,64,59,54,43,68,57,32,29.96,29.84,14,6,18,0.00
2013-9-13,80,75,71,59,52,43,58,45,31,29.85,29.66,11,5,15,0.00
2013-9-14,85,77,74,59,50,-100,54,41,27,29.72,29.64,13,6,18,0.00
2013-9-15,81,77,73,61,54,47,60,45,32,29.75,29.67,15,9,19,0.00
2013-9-16,84,75,69,57,51,43,56,43,29,29.83,29.73,15,8,20,0.00
2013-9-17,72,66,60,59,52,43,79,62,39,29.81,29.74,13,5,19,0.00
2013-9-18,65,60,55,54,52,49,91,76,56,29.80,29.75,10,4,13,0.00
2013-9-19,69,62,55,59,56,50,98,80,57,29.85,29.78,14,5,17,0.00
2013-9-20,60,56,54,60,56,54,100,99,97,29.92,29.83,14,4,17,0.00
2013-9-21,65,57,55,58,54,-100,99,91,69,29.96,29.84,22,8,31,0.00
2013-9-22,69,62,55,54,48,41,97,64,38,29.89,29.81,21,7,28,0.00
2013-9-23,84,75,66,47,38,30,37,27,17,29.91,29.83,18,7,33,0.00
2013-9-24,79,73,66,50,41,33,50,33,23,29.93,29.83,12,5,17,0.00
2013-9-25,67,61,53,57,50,46,83,69,55,29.83,29.70,14,6,18,0.00
2013-9-26,63,58,54,51,46,36,82,66,38,29.93,29.73,18,8,31,0.00
2013-9-27,73,66,56,41,30,24,56,27,17,30.03,29.92,33,16,49,0.00
2013-9-28,79,70,66,30,22,-100,24,18,13,30.06,29.99,12,7,16,0.00
2013-9-29,78,72,67,48,34,22,38,25,16,30.07,29.97,14,6,17,0.00
2013-9-30,77,73,68,51,43,27,53,35,18,29.99,29.83,9,4,14,0.00
2013-10-1,67,65,64,55,52,44,73,62,49,29.91,29.88,8,4,11,0.00
2013-10-2,67,59,54,57,54,45,98,83,54,29.98,29.90,11,6,16,0.00
2013-10-3,65,58,53,57,54,52,98,90,74,29.96,29.85,14,4,17,0.00
2013-10-4,74,64,53,53,28,9,96,39,8,30.06,29.90,50,23,64,0.00
2013-10-5,78,72,67,22,17,9,17,13,9,30.15,30.03,44,32,61,0.00
2013-10-6,85,74,68,26,15,9,19,11,8,30.09,29.97,26,12,35,0.00
2013-10-7,77,70,61,48,34,15,53,29,11,29.97,29.89,13,6,21,0.00
2013-10-8,63,56,52,54,50,33,93,79,38,29.93,29.83,13,6,19,0.00
2013-10-9,53,51,48,50,47,43,98,89,74,29.84,29.73,18,9,32,0.01
2013-10-10,60,52,48,49,45,39,88,78,63,30.06,29.83,8,3,16,0.01
2013-10-11,63,57,52,52,47,40,91,71,43,30.08,29.98,12,3,17,0.00
2013-10-12,65,60,55,53,46,-100,87,63,44,30.00,29.92,10,4,13,0.00
2013-10-13,59,54,50,53,50,40,97,86,52,30.05,29.93,14,6,17,0.00
2013-10-14,75,65,55,52,43,29,82,50,21,30.06,29.96,26,8,33,0.00
2013-10-15,76,71,66,32,28,25,26,20,18,29.97,29.91,30,14,39,0.00
2013-10-16,78,70,65,27,23,21,23,17,13,30.08,29.98,28,14,39,0.00
2013-10-17,72,68,62,35,29,23,34,23,18,30.04,29.93,15,7,23,0.00
2013-10-18,76,71,65,57,39,23,62,34,14,30.02,29.94,11,5,14,0.00
2013-10-19,76,72,71,45,32,-100,35,25,12,30.03,29.96,18,7,27,0.00
2013-10-20,73,66,61,57,49,26,77,58,17,29.97,29.89,15,2,22,0.00
2013-10-21,70,63,59,56,50,36,77,63,37,29.98,29.92,6,2,9,0.00
2013-10-22,71,62,58,54,51,42,80,67,42,30.01,29.91,8,4,11,0.00
2013-10-23,62,53,48,54,51,47,99,92,73,30.01,29.91,10,3,13,0.00
2013-10-24,61,54,51,53,51,50,97,91,76,30.07,29.99,15,5,20,0.00
2013-10-25,69,58,49,56,52,44,99,82,41,30.17,30.06,10,4,14,0.01
2013-10-26,75,68,63,56,44,-100,66,45,16,30.11,29.98,12,6,15,0.00
2013-10-27,71,60,50,53,49,37,98,71,29,29.99,29.79,20,8,27,0.00
2013-10-28,55,50,48,49,45,-100,99,87,61,29.97,29.80,21,11,29,0.00
2013-10-29,55,50,47,49,46,43,97,85,70,30.05,29.96,12,6,19,0.00
2013-10-30,61,54,49,50,45,36,97,71,43,30.11,30.04,14,5,19,0.01
2013-10-31,68,63,57,41,37,33,45,39,35,30.13,30.03,12,6,18,0.01
2013-11-1,76,72,66,39,31,25,28,22,18,30.13,29.97,20,8,29,0.00
2013-11-2,76,66,58,50,32,-100,76,31,19,29.99,29.87,14,5,19,0.00
2013-11-3,58,54,51,53,49,38,95,84,48,29.93,29.85,13,7,18,0.00
2013-11-4,59,54,51,52,49,42,95,83,60,29.98,29.82,11,4,16,0.00
2013-11-5,65,61,57,24,14,6,27,17,11,30.17,29.98,41,29,56,0.01
2013-11-6,73,67,61,29,11,6,20,11,8,30.24,30.14,30,16,44,0.00
2013-11-9,68,53,65,44,12,-100,45,31,29,30.07,30.05,10,8,17,0.00
2013-11-10,74,62,56,51,46,32,73,57,21,30.11,30.06,10,6,15,0.00
2013-11-11,73,69,65,44,40,37,40,33,28,30.14,30.07,10,3,14,0.00
2013-11-12,77,70,59,48,37,30,50,31,19,30.17,30.09,12,6,19,0.00
2013-11-13,84,78,75,31,23,20,17,13,10,30.07,29.91,30,18,40,0.00
2013-11-14,86,75,63,42,30,20,46,21,12,29.93,29.73,25,8,33,0.00
2013-11-15,64,55,51,53,49,35,95,81,34,29.78,29.67,13,5,19,0.00
2013-11-16,57,52,49,53,47,-100,96,87,77,29.96,29.76,11,4,16,0.00
2013-11-17,59,53,49,52,48,45,93,83,68,30.13,29.97,11,5,14,0.00
2013-11-18,58,52,49,52,48,46,97,88,74,30.20,30.10,15,6,21,0.00
2013-11-19,57,51,48,51,49,47,98,92,78,30.13,30.00,11,1,14,0.00
2013-11-20,57,53,50,52,51,48,99,92,78,30.01,29.91,12,3,16,0.10
2013-11-21,53,51,49,53,50,41,100,98,74,29.92,29.86,28,8,36,0.20
2013-11-22,51,48,46,41,37,36,73,65,59,30.01,29.87,47,36,61,0.03
2013-11-23,56,50,46,39,36,-100,67,60,49,30.14,30.00,38,22,50,0.00
2013-11-24,60,53,49,43,39,36,70,59,49,30.24,30.12,25,12,38,0.00
2013-11-25,63,59,55,44,35,29,61,42,29,30.29,30.20,25,14,38,0.00
2013-11-26,68,64,59,47,35,29,53,35,25,30.21,30.06,20,9,26,0.00
2013-11-27,66,60,57,37,34,32,45,37,30,30.06,29.90,23,14,30,0.00
2013-11-28,59,55,52,49,40,34,90,59,41,30.08,29.90,21,15,32,0.00
2013-12-2,69,64,61,36,30,21,37,28,16,30.13,29.92,13,5,18,0.00
2013-12-3,59,52,45,51,42,28,90,73,31,29.89,29.75,20,7,30,0.00
2013-12-4,54,46,41,40,28,16,82,50,25,29.99,29.78,16,6,25,0.00
2013-12-5,48,44,42,35,30,22,69,58,41,30.13,29.99,13,7,17,0.00
2013-12-6,51,45,42,39,34,27,77,65,50,30.21,30.13,9,5,15,0.00
2013-12-7,47,42,40,45,34,-100,98,75,47,30.14,30.01,19,8,40,0.11
2013-12-8,46,42,38,32,24,13,67,50,31,30.25,30.14,26,6,34,0.02
2013-12-9,48,43,40,13,2,-100,32,20,10,30.35,30.20,50,35,65,0.01
2013-12-10,59,53,46,23,2,-7,28,13,9,30.29,30.16,27,10,40,0.01
2013-12-11,61,56,53,13,7,1,17,13,11,30.21,30.15,24,13,29,0.00
2013-12-12,62,56,49,42,22,10,54,28,15,30.24,30.17,22,8,30,0.00
2013-12-13,56,51,47,48,39,18,88,65,25,30.26,30.17,11,4,15,0.00
2013-12-14,64,61,57,20,18,17,23,19,16,30.32,30.19,48,31,62,0.00
2013-12-17,77,71,61,34,28,21,36,20,14,30.13,30.00,18,4,24,0.00
2013-12-18,70,57,47,51,41,27,95,61,20,30.00,29.85,14,5,22,0.00
2013-12-19,48,46,44,46,42,35,98,85,60,29.86,29.74,17,7,27,0.02
2013-12-20,58,52,46,39,32,25,70,48,33,29.98,29.83,30,10,41,0.01
2013-12-21,53,49,47,46,40,-100,95,74,39,30.12,29.95,11,4,16,0.00
2013-12-22,58,53,48,49,46,41,86,78,53,30.28,30.16,6,2,11,0.00
2013-12-23,68,63,58,39,31,29,39,30,27,30.37,30.23,37,15,46,0.00
2013-12-24,72,66,61,33,29,25,31,25,19,30.23,30.13,33,17,44,0.00
2013-12-25,70,65,63,27,20,4,24,18,9,30.22,30.13,45,34,57,0.00
2013-12-26,70,66,63,7,4,-5,10,8,5,30.18,30.09,37,28,51,0.00
2013-12-27,77,71,65,18,7,-10,12,8,4,30.18,30.07,15,7,21,0.00
2013-12-28,69,61,58,48,27,-100,65,35,8,30.03,29.93,8,3,16,0.00
2013-12-29,65,62,58,14,8,-2,17,12,7,30.16,30.01,52,34,62,0.00
2013-12-30,67,63,59,21,15,-4,20,15,7,30.28,30.19,9,3,12,0.00
2013-12-31,62,59,55,42,32,11,59,38,15,30.22,30.10,7,2,10,0.00
2014-1-1,70,66,58,47,32,19,55,30,16,30.14,30.08,19,6,26,0.00
2014-1-2,75,68,65,29,24,20,22,18,15,30.13,30.01,14,5,20,0.00